sensor_id;sensor_type;location;lat;lon;timestamp;pressure;altitude;pressure_sealevel;temperature
64960;BMP180;51487;52.266;10.542;2023-02-28T00:00:34;102121.00;;;-0.40
64960;BMP180;51487;52.266;10.542;2023-02-28T00:03:01;102127.00;;;-0.40
64960;BMP180;51487;52.266;10.542;2023-02-28T00:05:27;102129.00;;;-0.30
64960;BMP180;51487;52.266;10.542;2023-02-28T00:07:54;102134.00;;;-0.40
64960;BMP180;51487;52.266;10.542;2023-02-28T00:10:26;102132.00;;;-0.40
64960;BMP180;51487;52.266;10.542;2023-02-28T00:12:56;102129.00;;;-0.50
64960;BMP180;51487;52.266;10.542;2023-02-28T00:15:26;102118.00;;;-0.50
64960;BMP180;51487;52.266;10.542;2023-02-28T00:17:52;102112.00;;;-0.60
64960;BMP180;51487;52.266;10.542;2023-02-28T00:20:18;102120.00;;;-0.60
64960;BMP180;51487;52.266;10.542;2023-02-28T00:22:50;102122.00;;;-0.70
64960;BMP180;51487;52.266;10.542;2023-02-28T00:25:20;102122.00;;;-0.80
64960;BMP180;51487;52.266;10.542;2023-02-28T00:27:47;102117.00;;;-0.80
64960;BMP180;51487;52.266;10.542;2023-02-28T00:30:15;102121.00;;;-0.80
64960;BMP180;51487;52.266;10.542;2023-02-28T00:32:43;102117.00;;;-0.90
64960;BMP180;51487;52.266;10.542;2023-02-28T00:35:10;102119.00;;;-0.90
64960;BMP180;51487;52.266;10.542;2023-02-28T00:37:36;102119.00;;;-0.90
64960;BMP180;51487;52.266;10.542;2023-02-28T00:40:03;102120.00;;;-0.90
64960;BMP180;51487;52.266;10.542;2023-02-28T00:42:31;102120.00;;;-0.90
64960;BMP180;51487;52.266;10.542;2023-02-28T00:44:57;102121.00;;;-0.90
64960;BMP180;51487;52.266;10.542;2023-02-28T00:47:22;102121.00;;;-0.90
64960;BMP180;51487;52.266;10.542;2023-02-28T00:49:48;102121.00;;;-1.00
64960;BMP180;51487;52.266;10.542;2023-02-28T00:52:13;102118.00;;;-0.90
64960;BMP180;51487;52.266;10.542;2023-02-28T00:54:39;102117.00;;;-1.00
64960;BMP180;51487;52.266;10.542;2023-02-28T00:57:04;102119.00;;;-0.90
64960;BMP180;51487;52.266;10.542;2023-02-28T00:59:30;102111.00;;;-1.00
64960;BMP180;51487;52.266;10.542;2023-02-28T01:01:55;102113.00;;;-1.00
64960;BMP180;51487;52.266;10.542;2023-02-28T01:04:21;102114.00;;;-0.90
64960;BMP180;51487;52.266;10.542;2023-02-28T01:06:47;102112.00;;;-0.80
64960;BMP180;51487;52.266;10.542;2023-02-28T01:09:12;102113.00;;;-0.80
64960;BMP180;51487;52.266;10.542;2023-02-28T01:11:38;102118.00;;;-0.80
64960;BMP180;51487;52.266;10.542;2023-02-28T01:14:06;102113.00;;;-0.80
64960;BMP180;51487;52.266;10.542;2023-02-28T01:16:32;102105.00;;;-0.80
64960;BMP180;51487;52.266;10.542;2023-02-28T01:18:57;102110.00;;;-0.80
64960;BMP180;51487;52.266;10.542;2023-02-28T01:21:24;102111.00;;;-0.90
64960;BMP180;51487;52.266;10.542;2023-02-28T01:23:50;102106.00;;;-0.80
64960;BMP180;51487;52.266;10.542;2023-02-28T01:26:18;102112.00;;;-0.80
64960;BMP180;51487;52.266;10.542;2023-02-28T01:28:46;102106.00;;;-0.70
64960;BMP180;51487;52.266;10.542;2023-02-28T01:31:13;102107.00;;;-0.70
64960;BMP180;51487;52.266;10.542;2023-02-28T01:33:39;102103.00;;;-0.70
64960;BMP180;51487;52.266;10.542;2023-02-28T01:36:11;102093.00;;;-0.60
64960;BMP180;51487;52.266;10.542;2023-02-28T01:38:38;102092.00;;;-0.60
64960;BMP180;51487;52.266;10.542;2023-02-28T01:41:05;102096.00;;;-0.60
64960;BMP180;51487;52.266;10.542;2023-02-28T01:46:10;102091.00;;;-0.70
64960;BMP180;51487;52.266;10.542;2023-02-28T01:48:39;102091.00;;;-0.60
64960;BMP180;51487;52.266;10.542;2023-02-28T01:51:22;102091.00;;;-0.60
64960;BMP180;51487;52.266;10.542;2023-02-28T01:54:07;102087.00;;;-0.70
64960;BMP180;51487;52.266;10.542;2023-02-28T01:56:42;102081.00;;;-0.70
64960;BMP180;51487;52.266;10.542;2023-02-28T01:59:22;102088.00;;;-0.60
64960;BMP180;51487;52.266;10.542;2023-02-28T02:01:55;102084.00;;;-0.60
64960;BMP180;51487;52.266;10.542;2023-02-28T02:04:23;102079.00;;;-0.70
64960;BMP180;51487;52.266;10.542;2023-02-28T02:06:52;102081.00;;;-0.70
64960;BMP180;51487;52.266;10.542;2023-02-28T02:09:18;102082.00;;;-0.80
64960;BMP180;51487;52.266;10.542;2023-02-28T02:11:44;102085.00;;;-0.80
64960;BMP180;51487;52.266;10.542;2023-02-28T02:20:20;102067.00;;;-1.10
64960;BMP180;51487;52.266;10.542;2023-02-28T02:40:22;102072.00;;;-0.70
64960;BMP180;51487;52.266;10.542;2023-02-28T02:42:57;102079.00;;;-0.70
64960;BMP180;51487;52.266;10.542;2023-02-28T02:48:40;102077.00;;;-0.50
64960;BMP180;51487;52.266;10.542;2023-02-28T02:51:16;102079.00;;;-0.50
64960;BMP180;51487;52.266;10.542;2023-02-28T02:53:51;102087.00;;;-0.40
64960;BMP180;51487;52.266;10.542;2023-02-28T02:56:25;102088.00;;;-0.30
64960;BMP180;51487;52.266;10.542;2023-02-28T02:58:57;102089.00;;;-0.30
64960;BMP180;51487;52.266;10.542;2023-02-28T03:01:26;102095.00;;;-0.30
64960;BMP180;51487;52.266;10.542;2023-02-28T03:04:05;102094.00;;;-0.40
64960;BMP180;51487;52.266;10.542;2023-02-28T03:06:52;102102.00;;;-0.50
64960;BMP180;51487;52.266;10.542;2023-02-28T03:09:23;102101.00;;;-0.50
64960;BMP180;51487;52.266;10.542;2023-02-28T03:11:52;102098.00;;;-0.50
64960;BMP180;51487;52.266;10.542;2023-02-28T03:23:35;102101.00;;;-0.30
64960;BMP180;51487;52.266;10.542;2023-02-28T03:26:13;102099.00;;;-0.30
64960;BMP180;51487;52.266;10.542;2023-02-28T03:31:33;102105.00;;;-0.20
64960;BMP180;51487;52.266;10.542;2023-02-28T03:34:33;102097.00;;;-0.10
64960;BMP180;51487;52.266;10.542;2023-02-28T03:37:11;102095.00;;;-0.10
64960;BMP180;51487;52.266;10.542;2023-02-28T03:40:15;102096.00;;;-0.10
64960;BMP180;51487;52.266;10.542;2023-02-28T03:42:43;102100.00;;;-0.20
64960;BMP180;51487;52.266;10.542;2023-02-28T03:45:19;102085.00;;;-0.10
64960;BMP180;51487;52.266;10.542;2023-02-28T03:48:00;102097.00;;;-0.10
64960;BMP180;51487;52.266;10.542;2023-02-28T03:50:40;102094.00;;;0.00
64960;BMP180;51487;52.266;10.542;2023-02-28T03:53:35;102092.00;;;0.10
64960;BMP180;51487;52.266;10.542;2023-02-28T03:56:09;102103.00;;;0.10
64960;BMP180;51487;52.266;10.542;2023-02-28T04:04:07;102100.00;;;0.20
64960;BMP180;51487;52.266;10.542;2023-02-28T04:06:37;102097.00;;;0.20
64960;BMP180;51487;52.266;10.542;2023-02-28T04:09:04;102100.00;;;0.10
64960;BMP180;51487;52.266;10.542;2023-02-28T04:11:44;102103.00;;;0.10
64960;BMP180;51487;52.266;10.542;2023-02-28T04:14:13;102102.00;;;0.10
64960;BMP180;51487;52.266;10.542;2023-02-28T04:16:41;102097.00;;;0.00
64960;BMP180;51487;52.266;10.542;2023-02-28T04:19:08;102083.00;;;0.00
64960;BMP180;51487;52.266;10.542;2023-02-28T04:21:38;102090.00;;;0.00
64960;BMP180;51487;52.266;10.542;2023-02-28T04:24:14;102089.00;;;0.00
64960;BMP180;51487;52.266;10.542;2023-02-28T04:26:46;102088.00;;;0.10
64960;BMP180;51487;52.266;10.542;2023-02-28T04:29:19;102088.00;;;0.20
64960;BMP180;51487;52.266;10.542;2023-02-28T04:31:49;102097.00;;;0.20
64960;BMP180;51487;52.266;10.542;2023-02-28T04:34:15;102104.00;;;0.10
64960;BMP180;51487;52.266;10.542;2023-02-28T04:36:41;102101.00;;;0.20
64960;BMP180;51487;52.266;10.542;2023-02-28T04:39:07;102105.00;;;0.10
64960;BMP180;51487;52.266;10.542;2023-02-28T04:41:34;102106.00;;;-0.10
64960;BMP180;51487;52.266;10.542;2023-02-28T04:44:00;102105.00;;;-0.10
64960;BMP180;51487;52.266;10.542;2023-02-28T04:46:25;102105.00;;;-0.20
64960;BMP180;51487;52.266;10.542;2023-02-28T04:48:51;102103.00;;;-0.20
64960;BMP180;51487;52.266;10.542;2023-02-28T04:51:18;102102.00;;;-0.20
64960;BMP180;51487;52.266;10.542;2023-02-28T04:53:45;102098.00;;;-0.20
64960;BMP180;51487;52.266;10.542;2023-02-28T04:56:13;102100.00;;;-0.30
64960;BMP180;51487;52.266;10.542;2023-02-28T04:58:41;102095.00;;;-0.30
64960;BMP180;51487;52.266;10.542;2023-02-28T05:01:31;102103.00;;;-0.30
64960;BMP180;51487;52.266;10.542;2023-02-28T05:03:59;102102.00;;;-0.40
64960;BMP180;51487;52.266;10.542;2023-02-28T05:06:28;102105.00;;;-0.50
64960;BMP180;51487;52.266;10.542;2023-02-28T05:08:55;102103.00;;;-0.50
64960;BMP180;51487;52.266;10.542;2023-02-28T05:11:30;102105.00;;;-0.50
64960;BMP180;51487;52.266;10.542;2023-02-28T05:14:01;102107.00;;;-0.40
64960;BMP180;51487;52.266;10.542;2023-02-28T05:16:31;102099.00;;;-0.50
64960;BMP180;51487;52.266;10.542;2023-02-28T05:18:57;102109.00;;;-0.40
64960;BMP180;51487;52.266;10.542;2023-02-28T05:24:01;102097.00;;;-0.50
64960;BMP180;51487;52.266;10.542;2023-02-28T05:26:29;102098.00;;;-0.50
64960;BMP180;51487;52.266;10.542;2023-02-28T05:28:54;102095.00;;;-0.50
64960;BMP180;51487;52.266;10.542;2023-02-28T05:31:20;102104.00;;;-0.40
64960;BMP180;51487;52.266;10.542;2023-02-28T05:33:46;102103.00;;;-0.30
64960;BMP180;51487;52.266;10.542;2023-02-28T05:36:12;102111.00;;;-0.30
64960;BMP180;51487;52.266;10.542;2023-02-28T05:38:38;102103.00;;;-0.20
64960;BMP180;51487;52.266;10.542;2023-02-28T05:41:08;102109.00;;;-0.20
64960;BMP180;51487;52.266;10.542;2023-02-28T05:43:35;102103.00;;;-0.20
64960;BMP180;51487;52.266;10.542;2023-02-28T05:46:03;102103.00;;;-0.20
64960;BMP180;51487;52.266;10.542;2023-02-28T05:48:30;102101.00;;;-0.30
64960;BMP180;51487;52.266;10.542;2023-02-28T05:50:57;102108.00;;;-0.40
64960;BMP180;51487;52.266;10.542;2023-02-28T05:53:23;102118.00;;;-0.40
64960;BMP180;51487;52.266;10.542;2023-02-28T05:55:48;102114.00;;;-0.50
64960;BMP180;51487;52.266;10.542;2023-02-28T05:58:14;102112.00;;;-0.50
64960;BMP180;51487;52.266;10.542;2023-02-28T06:00:40;102112.00;;;-0.60
64960;BMP180;51487;52.266;10.542;2023-02-28T06:03:05;102130.00;;;-0.60
64960;BMP180;51487;52.266;10.542;2023-02-28T06:05:31;102135.00;;;-0.60
64960;BMP180;51487;52.266;10.542;2023-02-28T06:07:56;102122.00;;;-0.60
64960;BMP180;51487;52.266;10.542;2023-02-28T06:10:21;102120.00;;;-0.70
64960;BMP180;51487;52.266;10.542;2023-02-28T06:12:47;102122.00;;;-0.70
64960;BMP180;51487;52.266;10.542;2023-02-28T06:15:14;102130.00;;;-0.60
64960;BMP180;51487;52.266;10.542;2023-02-28T06:17:41;102130.00;;;-0.70
64960;BMP180;51487;52.266;10.542;2023-02-28T06:20:09;102137.00;;;-0.70
64960;BMP180;51487;52.266;10.542;2023-02-28T06:22:38;102137.00;;;-0.70
64960;BMP180;51487;52.266;10.542;2023-02-28T06:25:05;102138.00;;;-0.70
64960;BMP180;51487;52.266;10.542;2023-02-28T06:27:33;102136.00;;;-0.80
64960;BMP180;51487;52.266;10.542;2023-02-28T06:29:58;102138.00;;;-0.70
64960;BMP180;51487;52.266;10.542;2023-02-28T06:32:24;102143.00;;;-0.80
64960;BMP180;51487;52.266;10.542;2023-02-28T06:34:50;102138.00;;;-0.80
64960;BMP180;51487;52.266;10.542;2023-02-28T06:37:16;102146.00;;;-0.80
64960;BMP180;51487;52.266;10.542;2023-02-28T06:39:45;102144.00;;;-0.80
64960;BMP180;51487;52.266;10.542;2023-02-28T06:42:10;102148.00;;;-0.80
64960;BMP180;51487;52.266;10.542;2023-02-28T06:44:36;102149.00;;;-0.90
64960;BMP180;51487;52.266;10.542;2023-02-28T06:47:04;102156.00;;;-1.00
64960;BMP180;51487;52.266;10.542;2023-02-28T06:49:32;102154.00;;;-1.00
64960;BMP180;51487;52.266;10.542;2023-02-28T06:51:59;102155.00;;;-0.90
64960;BMP180;51487;52.266;10.542;2023-02-28T06:54:24;102165.00;;;-0.90
64960;BMP180;51487;52.266;10.542;2023-02-28T06:56:50;102161.00;;;-0.90
64960;BMP180;51487;52.266;10.542;2023-02-28T06:59:16;102157.00;;;-0.80
64960;BMP180;51487;52.266;10.542;2023-02-28T07:01:42;102153.00;;;-0.80
64960;BMP180;51487;52.266;10.542;2023-02-28T07:04:07;102162.00;;;-0.80
64960;BMP180;51487;52.266;10.542;2023-02-28T07:06:33;102165.00;;;-0.70
64960;BMP180;51487;52.266;10.542;2023-02-28T07:08:59;102172.00;;;-0.70
64960;BMP180;51487;52.266;10.542;2023-02-28T07:11:26;102169.00;;;-0.60
64960;BMP180;51487;52.266;10.542;2023-02-28T07:13:53;102172.00;;;-0.60
64960;BMP180;51487;52.266;10.542;2023-02-28T07:16:22;102178.00;;;-0.50
64960;BMP180;51487;52.266;10.542;2023-02-28T07:18:48;102163.00;;;-0.40
64960;BMP180;51487;52.266;10.542;2023-02-28T07:21:15;102174.00;;;-0.40
64960;BMP180;51487;52.266;10.542;2023-02-28T07:23:40;102179.00;;;-0.40
64960;BMP180;51487;52.266;10.542;2023-02-28T07:26:11;102171.00;;;-0.40
64960;BMP180;51487;52.266;10.542;2023-02-28T07:28:40;102185.00;;;-0.50
64960;BMP180;51487;52.266;10.542;2023-02-28T07:31:08;102176.00;;;-0.40
64960;BMP180;51487;52.266;10.542;2023-02-28T07:33:35;102175.00;;;-0.30
64960;BMP180;51487;52.266;10.542;2023-02-28T07:36:06;102179.00;;;-0.30
64960;BMP180;51487;52.266;10.542;2023-02-28T07:38:35;102175.00;;;-0.30
64960;BMP180;51487;52.266;10.542;2023-02-28T07:41:02;102189.00;;;-0.30
64960;BMP180;51487;52.266;10.542;2023-02-28T07:43:31;102177.00;;;-0.20
64960;BMP180;51487;52.266;10.542;2023-02-28T07:46:06;102176.00;;;-0.20
64960;BMP180;51487;52.266;10.542;2023-02-28T07:48:34;102173.00;;;-0.20
64960;BMP180;51487;52.266;10.542;2023-02-28T07:51:01;102183.00;;;-0.20
64960;BMP180;51487;52.266;10.542;2023-02-28T07:53:28;102183.00;;;-0.20
64960;BMP180;51487;52.266;10.542;2023-02-28T07:55:55;102173.00;;;-0.10
64960;BMP180;51487;52.266;10.542;2023-02-28T07:58:21;102180.00;;;-0.10
64960;BMP180;51487;52.266;10.542;2023-02-28T08:00:47;102172.00;;;-0.10
64960;BMP180;51487;52.266;10.542;2023-02-28T08:03:12;102180.00;;;-0.10
64960;BMP180;51487;52.266;10.542;2023-02-28T08:05:41;102179.00;;;-0.10
64960;BMP180;51487;52.266;10.542;2023-02-28T08:08:07;102169.00;;;-0.10
64960;BMP180;51487;52.266;10.542;2023-02-28T08:10:34;102177.00;;;0.10
64960;BMP180;51487;52.266;10.542;2023-02-28T08:12:59;102170.00;;;0.10
64960;BMP180;51487;52.266;10.542;2023-02-28T08:15:25;102170.00;;;0.00
64960;BMP180;51487;52.266;10.542;2023-02-28T08:17:51;102174.00;;;0.10
64960;BMP180;51487;52.266;10.542;2023-02-28T08:20:17;102179.00;;;0.00
64960;BMP180;51487;52.266;10.542;2023-02-28T08:22:43;102182.00;;;0.10
64960;BMP180;51487;52.266;10.542;2023-02-28T08:25:09;102180.00;;;0.20
64960;BMP180;51487;52.266;10.542;2023-02-28T08:27:35;102183.00;;;0.20
64960;BMP180;51487;52.266;10.542;2023-02-28T08:30:02;102168.00;;;0.30
64960;BMP180;51487;52.266;10.542;2023-02-28T08:32:28;102172.00;;;0.50
64960;BMP180;51487;52.266;10.542;2023-02-28T08:34:53;102183.00;;;0.70
64960;BMP180;51487;52.266;10.542;2023-02-28T08:37:19;102183.00;;;0.80
64960;BMP180;51487;52.266;10.542;2023-02-28T08:39:45;102182.00;;;0.80
64960;BMP180;51487;52.266;10.542;2023-02-28T08:42:10;102188.00;;;0.80
64960;BMP180;51487;52.266;10.542;2023-02-28T08:44:36;102180.00;;;0.80
64960;BMP180;51487;52.266;10.542;2023-02-28T08:47:02;102185.00;;;0.80
64960;BMP180;51487;52.266;10.542;2023-02-28T08:49:27;102187.00;;;0.80
64960;BMP180;51487;52.266;10.542;2023-02-28T08:51:53;102187.00;;;0.80
64960;BMP180;51487;52.266;10.542;2023-02-28T08:54:20;102186.00;;;0.90
64960;BMP180;51487;52.266;10.542;2023-02-28T08:56:46;102190.00;;;0.90
64960;BMP180;51487;52.266;10.542;2023-02-28T08:59:12;102185.00;;;1.00
64960;BMP180;51487;52.266;10.542;2023-02-28T09:01:39;102189.00;;;1.10
64960;BMP180;51487;52.266;10.542;2023-02-28T09:04:06;102186.00;;;1.20
64960;BMP180;51487;52.266;10.542;2023-02-28T09:06:34;102189.00;;;1.30
64960;BMP180;51487;52.266;10.542;2023-02-28T09:08:59;102191.00;;;1.40
64960;BMP180;51487;52.266;10.542;2023-02-28T09:11:27;102194.00;;;1.50
64960;BMP180;51487;52.266;10.542;2023-02-28T09:13:53;102193.00;;;1.50
64960;BMP180;51487;52.266;10.542;2023-02-28T09:16:21;102195.00;;;1.60
64960;BMP180;51487;52.266;10.542;2023-02-28T09:18:46;102190.00;;;1.70
64960;BMP180;51487;52.266;10.542;2023-02-28T09:21:14;102191.00;;;1.70
64960;BMP180;51487;52.266;10.542;2023-02-28T09:23:43;102196.00;;;1.80
64960;BMP180;51487;52.266;10.542;2023-02-28T09:26:18;102191.00;;;1.70
64960;BMP180;51487;52.266;10.542;2023-02-28T09:28:47;102196.00;;;1.80
64960;BMP180;51487;52.266;10.542;2023-02-28T09:31:21;102182.00;;;1.90
64960;BMP180;51487;52.266;10.542;2023-02-28T09:33:49;102194.00;;;2.00
64960;BMP180;51487;52.266;10.542;2023-02-28T09:36:17;102191.00;;;2.10
64960;BMP180;51487;52.266;10.542;2023-02-28T09:38:42;102191.00;;;2.20
64960;BMP180;51487;52.266;10.542;2023-02-28T09:41:21;102196.00;;;2.20
64960;BMP180;51487;52.266;10.542;2023-02-28T09:43:58;102197.00;;;2.20
64960;BMP180;51487;52.266;10.542;2023-02-28T09:49:17;102190.00;;;2.20
64960;BMP180;51487;52.266;10.542;2023-02-28T09:52:02;102189.00;;;2.20
64960;BMP180;51487;52.266;10.542;2023-02-28T09:54:31;102196.00;;;2.30
64960;BMP180;51487;52.266;10.542;2023-02-28T10:02:49;102200.00;;;5.10
64960;BMP180;51487;52.266;10.542;2023-02-28T10:05:41;102199.00;;;4.40
64960;BMP180;51487;52.266;10.542;2023-02-28T10:08:17;102193.00;;;3.80
64960;BMP180;51487;52.266;10.542;2023-02-28T10:11:11;102198.00;;;3.60
64960;BMP180;51487;52.266;10.542;2023-02-28T10:22:03;102191.00;;;3.00
64960;BMP180;51487;52.266;10.542;2023-02-28T10:24:43;102197.00;;;3.00
64960;BMP180;51487;52.266;10.542;2023-02-28T10:27:19;102191.00;;;2.90
64960;BMP180;51487;52.266;10.542;2023-02-28T10:29:47;102203.00;;;2.90
64960;BMP180;51487;52.266;10.542;2023-02-28T10:32:21;102197.00;;;2.90
64960;BMP180;51487;52.266;10.542;2023-02-28T10:34:53;102200.00;;;2.90
64960;BMP180;51487;52.266;10.542;2023-02-28T10:37:22;102198.00;;;2.90
64960;BMP180;51487;52.266;10.542;2023-02-28T10:39:48;102193.00;;;3.00
64960;BMP180;51487;52.266;10.542;2023-02-28T10:42:25;102193.00;;;2.90
64960;BMP180;51487;52.266;10.542;2023-02-28T10:45:12;102191.00;;;2.80
64960;BMP180;51487;52.266;10.542;2023-02-28T10:56:00;102197.00;;;3.20
64960;BMP180;51487;52.266;10.542;2023-02-28T10:58:30;102188.00;;;3.20
64960;BMP180;51487;52.266;10.542;2023-02-28T11:01:58;102188.00;;;3.40
64960;BMP180;51487;52.266;10.542;2023-02-28T11:09:50;102184.00;;;3.30
64960;BMP180;51487;52.266;10.542;2023-02-28T11:12:36;102196.00;;;3.20
64960;BMP180;51487;52.266;10.542;2023-02-28T11:15:06;102192.00;;;3.20
64960;BMP180;51487;52.266;10.542;2023-02-28T11:17:59;102183.00;;;3.10
64960;BMP180;51487;52.266;10.542;2023-02-28T11:20:29;102184.00;;;3.20
64960;BMP180;51487;52.266;10.542;2023-02-28T11:22:58;102178.00;;;3.30
64960;BMP180;51487;52.266;10.542;2023-02-28T11:25:36;102168.00;;;3.20
64960;BMP180;51487;52.266;10.542;2023-02-28T11:28:06;102178.00;;;3.30
64960;BMP180;51487;52.266;10.542;2023-02-28T11:31:03;102165.00;;;3.40
64960;BMP180;51487;52.266;10.542;2023-02-28T11:36:15;102158.00;;;3.40
64960;BMP180;51487;52.266;10.542;2023-02-28T11:38:44;102167.00;;;3.40
64960;BMP180;51487;52.266;10.542;2023-02-28T11:47:06;102152.00;;;3.50
64960;BMP180;51487;52.266;10.542;2023-02-28T11:50:39;102155.00;;;3.70
64960;BMP180;51487;52.266;10.542;2023-02-28T11:53:02;102161.00;;;3.80
64960;BMP180;51487;52.266;10.542;2023-02-28T11:56:17;102154.00;;;3.80
64960;BMP180;51487;52.266;10.542;2023-02-28T12:07:53;102155.00;;;3.80
64960;BMP180;51487;52.266;10.542;2023-02-28T12:10:29;102147.00;;;3.90
64960;BMP180;51487;52.266;10.542;2023-02-28T12:13:12;102146.00;;;4.00
64960;BMP180;51487;52.266;10.542;2023-02-28T12:16:26;102154.00;;;4.00
64960;BMP180;51487;52.266;10.542;2023-02-28T12:19:50;102143.00;;;4.00
64960;BMP180;51487;52.266;10.542;2023-02-28T12:22:29;102146.00;;;3.90
64960;BMP180;51487;52.266;10.542;2023-02-28T12:27:40;102141.00;;;3.80
64960;BMP180;51487;52.266;10.542;2023-02-28T12:30:27;102148.00;;;3.80
64960;BMP180;51487;52.266;10.542;2023-02-28T12:33:03;102142.00;;;3.80
64960;BMP180;51487;52.266;10.542;2023-02-28T12:35:37;102135.00;;;3.90
64960;BMP180;51487;52.266;10.542;2023-02-28T12:38:23;102139.00;;;3.90
64960;BMP180;51487;52.266;10.542;2023-02-28T12:41:01;102126.00;;;3.80
64960;BMP180;51487;52.266;10.542;2023-02-28T12:43:36;102120.00;;;3.90
64960;BMP180;51487;52.266;10.542;2023-02-28T12:46:10;102134.00;;;4.00
64960;BMP180;51487;52.266;10.542;2023-02-28T12:49:13;102115.00;;;3.90
64960;BMP180;51487;52.266;10.542;2023-02-28T12:51:53;102112.00;;;3.80
64960;BMP180;51487;52.266;10.542;2023-02-28T12:54:26;102105.00;;;3.80
64960;BMP180;51487;52.266;10.542;2023-02-28T12:59:42;102108.00;;;3.80
64960;BMP180;51487;52.266;10.542;2023-02-28T13:02:23;102107.00;;;3.90
64960;BMP180;51487;52.266;10.542;2023-02-28T13:10:50;102094.00;;;3.90
64960;BMP180;51487;52.266;10.542;2023-02-28T13:13:22;102081.00;;;3.90
64960;BMP180;51487;52.266;10.542;2023-02-28T13:18:33;102072.00;;;4.20
64960;BMP180;51487;52.266;10.542;2023-02-28T13:21:01;102077.00;;;4.20
64960;BMP180;51487;52.266;10.542;2023-02-28T13:26:17;102063.00;;;4.20
64960;BMP180;51487;52.266;10.542;2023-02-28T13:31:20;102063.00;;;3.90
64960;BMP180;51487;52.266;10.542;2023-02-28T13:36:31;102064.00;;;4.00
64960;BMP180;51487;52.266;10.542;2023-02-28T13:39:02;102061.00;;;4.00
64960;BMP180;51487;52.266;10.542;2023-02-28T13:41:49;102069.00;;;4.10
64960;BMP180;51487;52.266;10.542;2023-02-28T13:44:18;102074.00;;;4.10
64960;BMP180;51487;52.266;10.542;2023-02-28T13:55:51;102060.00;;;4.10
64960;BMP180;51487;52.266;10.542;2023-02-28T14:00:55;102079.00;;;4.10
64960;BMP180;51487;52.266;10.542;2023-02-28T14:06:30;102075.00;;;4.10
64960;BMP180;51487;52.266;10.542;2023-02-28T14:09:15;102072.00;;;4.00
64960;BMP180;51487;52.266;10.542;2023-02-28T14:11:58;102075.00;;;4.00
64960;BMP180;51487;52.266;10.542;2023-02-28T14:15:02;102083.00;;;4.10
64960;BMP180;51487;52.266;10.542;2023-02-28T14:17:31;102087.00;;;4.10
64960;BMP180;51487;52.266;10.542;2023-02-28T14:19:58;102079.00;;;4.10
64960;BMP180;51487;52.266;10.542;2023-02-28T14:25:23;102067.00;;;4.20
64960;BMP180;51487;52.266;10.542;2023-02-28T14:31:29;102067.00;;;4.10
64960;BMP180;51487;52.266;10.542;2023-02-28T14:37:38;102061.00;;;4.00
64960;BMP180;51487;52.266;10.542;2023-02-28T14:40:15;102064.00;;;4.10
64960;BMP180;51487;52.266;10.542;2023-02-28T14:42:55;102062.00;;;4.10
64960;BMP180;51487;52.266;10.542;2023-02-28T14:45:37;102059.00;;;4.10
64960;BMP180;51487;52.266;10.542;2023-02-28T14:48:04;102047.00;;;4.10
64960;BMP180;51487;52.266;10.542;2023-02-28T14:50:36;102054.00;;;4.10
64960;BMP180;51487;52.266;10.542;2023-02-28T14:53:03;102060.00;;;4.00
64960;BMP180;51487;52.266;10.542;2023-02-28T14:55:33;102063.00;;;4.10
64960;BMP180;51487;52.266;10.542;2023-02-28T14:58:04;102057.00;;;4.00
64960;BMP180;51487;52.266;10.542;2023-02-28T15:00:47;102056.00;;;4.00
64960;BMP180;51487;52.266;10.542;2023-02-28T15:06:06;102049.00;;;4.00
64960;BMP180;51487;52.266;10.542;2023-02-28T15:08:38;102046.00;;;4.00
64960;BMP180;51487;52.266;10.542;2023-02-28T15:11:05;102033.00;;;4.00
64960;BMP180;51487;52.266;10.542;2023-02-28T15:16:37;102052.00;;;3.80
64960;BMP180;51487;52.266;10.542;2023-02-28T15:21:57;102043.00;;;3.80
64960;BMP180;51487;52.266;10.542;2023-02-28T15:24:41;102043.00;;;3.90
64960;BMP180;51487;52.266;10.542;2023-02-28T15:27:15;102042.00;;;4.00
64960;BMP180;51487;52.266;10.542;2023-02-28T15:29:49;102044.00;;;4.00
64960;BMP180;51487;52.266;10.542;2023-02-28T15:32:35;102039.00;;;4.00
64960;BMP180;51487;52.266;10.542;2023-02-28T15:37:56;102048.00;;;3.80
64960;BMP180;51487;52.266;10.542;2023-02-28T15:45:40;102050.00;;;3.80
64960;BMP180;51487;52.266;10.542;2023-02-28T15:48:17;102049.00;;;3.70
64960;BMP180;51487;52.266;10.542;2023-02-28T15:50:54;102045.00;;;3.60
64960;BMP180;51487;52.266;10.542;2023-02-28T15:53:31;102038.00;;;3.60
64960;BMP180;51487;52.266;10.542;2023-02-28T15:56:04;102043.00;;;3.70
64960;BMP180;51487;52.266;10.542;2023-02-28T15:58:35;102048.00;;;3.60
64960;BMP180;51487;52.266;10.542;2023-02-28T16:01:38;102050.00;;;3.50
64960;BMP180;51487;52.266;10.542;2023-02-28T16:04:06;102050.00;;;3.50
64960;BMP180;51487;52.266;10.542;2023-02-28T16:06:40;102048.00;;;3.50
64960;BMP180;51487;52.266;10.542;2023-02-28T16:09:25;102056.00;;;3.50
64960;BMP180;51487;52.266;10.542;2023-02-28T16:11:55;102044.00;;;3.60
64960;BMP180;51487;52.266;10.542;2023-02-28T16:14:25;102053.00;;;3.50
64960;BMP180;51487;52.266;10.542;2023-02-28T16:17:02;102044.00;;;3.70
64960;BMP180;51487;52.266;10.542;2023-02-28T16:19:29;102054.00;;;3.70
64960;BMP180;51487;52.266;10.542;2023-02-28T16:21:56;102064.00;;;3.60
64960;BMP180;51487;52.266;10.542;2023-02-28T16:24:22;102057.00;;;3.60
64960;BMP180;51487;52.266;10.542;2023-02-28T16:26:50;102054.00;;;3.60
64960;BMP180;51487;52.266;10.542;2023-02-28T16:29:30;102052.00;;;3.70
64960;BMP180;51487;52.266;10.542;2023-02-28T16:31:58;102066.00;;;3.60
64960;BMP180;51487;52.266;10.542;2023-02-28T16:34:24;102063.00;;;3.70
64960;BMP180;51487;52.266;10.542;2023-02-28T16:36:50;102055.00;;;3.60
64960;BMP180;51487;52.266;10.542;2023-02-28T16:39:16;102062.00;;;3.60
64960;BMP180;51487;52.266;10.542;2023-02-28T16:41:44;102062.00;;;3.50
64960;BMP180;51487;52.266;10.542;2023-02-28T16:44:15;102063.00;;;3.40
64960;BMP180;51487;52.266;10.542;2023-02-28T16:46:53;102067.00;;;3.40
64960;BMP180;51487;52.266;10.542;2023-02-28T16:49:19;102064.00;;;3.40
64960;BMP180;51487;52.266;10.542;2023-02-28T16:51:45;102065.00;;;3.30
64960;BMP180;51487;52.266;10.542;2023-02-28T16:54:10;102064.00;;;3.30
64960;BMP180;51487;52.266;10.542;2023-02-28T16:56:38;102064.00;;;3.20